Terminal Aerodrome Forecast
Issued by NWS Shreveport, LA

Home | Current Version | Previous Version | Text Only | Print | Product List | Glossary On
Versions: 1 2 3 4 5 6 7 8 9 10 11 12
000
FTUS44 KSHV 092300
TAFGGG
TAF
KGGG 092323Z 1000/1024 19005KT P6SM SCT250
     FM101400 22005KT P6SM SCT250
     FM101600 21006KT P6SM SCT030 SCT250
     FM102000 18006KT P6SM SCT040 SCT250=

USA.gov is the U.S. government's official web portal to all federal, state and local government web resources and services.